Time;durP1;ratioP1;P1;durP2;ratioP2;P2;SDS_P1;SDS_P2;PMS_P1;PMS_P2;Temp;Humidity;BMP_temperature;BMP_pressure;BME280_temperature;BME280_humidity;BME280_pressure;Samples;Min_cycle;Max_cycle;Signal;HPM_P1;HPM_P2
2022/10/29 00:00:55;;;;;;;19.43;9.73;;;;;;;14.82;100.00;102043.38;5258765;28;20104;-72
2022/10/29 00:03:27;;;;;;;19.13;10.13;;;;;;;14.78;100.00;102047.09;5276883;28;20032;-72
2022/10/29 00:06:04;;;;;;;23.97;10.63;;;;;;;14.80;100.00;102042.59;5276297;28;20545;-72
2022/10/29 00:08:37;;;;;;;17.50;9.87;;;;;;;14.87;100.00;102034.22;5258690;28;20035;-72
2022/10/29 00:11:17;;;;;;;26.67;10.67;;;;;;;14.96;100.00;102029.34;5276067;28;20032;-72
2022/10/29 00:13:55;;;;;;;18.03;9.73;;;;;;;14.71;100.00;102020.25;5275357;28;20064;-72
2022/10/29 00:16:33;;;;;;;19.83;11.70;;;;;;;14.64;100.00;102025.03;5258427;28;20021;-72
2022/10/29 00:19:05;;;;;;;17.87;9.80;;;;;;;14.68;100.00;102023.88;5269556;28;20039;-72
2022/10/29 00:21:36;;;;;;;23.50;9.90;;;;;;;14.65;100.00;102032.00;5260742;28;20139;-72
2022/10/29 00:24:09;;;;;;;18.87;9.50;;;;;;;14.58;100.00;102030.63;5261747;28;20023;-72
2022/10/29 00:26:40;;;;;;;25.47;10.17;;;;;;;14.54;100.00;102034.41;5275317;28;20028;-72
2022/10/29 00:29:12;;;;;;;22.27;9.93;;;;;;;14.44;100.00;102029.66;5275588;28;20054;-72
2022/10/29 00:31:43;;;;;;;16.27;8.20;;;;;;;14.57;100.00;102034.22;5257842;28;20028;-72
2022/10/29 00:34:14;;;;;;;17.00;9.80;;;;;;;14.70;100.00;102035.19;5275815;28;20039;-72
2022/10/29 00:36:45;;;;;;;19.90;10.57;;;;;;;14.60;100.00;102034.03;5276429;28;20033;-72
2022/10/29 00:39:17;;;;;;;15.87;10.10;;;;;;;14.32;100.00;102018.03;5276139;28;20420;-72
2022/10/29 00:41:48;;;;;;;19.70;10.30;;;;;;;14.55;100.00;102030.81;5275163;28;20063;-73
2022/10/29 00:44:33;;;;;;;22.27;10.13;;;;;;;14.40;100.00;102034.25;5268949;28;20064;-71
2022/10/29 00:47:16;;;;;;;;;;;;;;;14.78;100.00;102041.81;5261980;28;20036;-72
2022/10/29 00:50:08;;;;;;;20.53;10.00;;;;;;;14.52;100.00;102040.59;5270915;28;20003;-72
2022/10/29 00:52:44;;;;;;;20.00;10.87;;;;;;;14.38;100.00;102051.94;5259499;28;20029;-72
2022/10/29 00:55:16;;;;;;;21.93;9.10;;;;;;;14.40;100.00;102047.44;5275840;28;20361;-72
2022/10/29 00:57:53;;;;;;;16.00;8.93;;;;;;;14.33;100.00;102035.53;5274451;28;20054;-72
2022/10/29 01:00:24;;;;;;;21.77;9.50;;;;;;;14.54;100.00;102043.16;5257870;28;20029;-72
2022/10/29 01:02:55;;;;;;;18.03;9.50;;;;;;;14.27;100.00;102020.94;5275906;28;20105;-72
2022/10/29 01:05:27;;;;;;;18.63;8.97;;;;;;;14.26;100.00;102039.47;5275473;28;20051;-73
2022/10/29 01:07:59;;;;;;;17.80;10.87;;;;;;;14.43;100.00;102033.25;5275295;28;20039;-73
2022/10/29 01:10:42;;;;;;;19.80;8.97;;;;;;;14.32;100.00;102043.53;5274900;28;20039;-72
2022/10/29 01:13:40;;;;;;;18.93;10.10;;;;;;;14.39;100.00;102036.97;5274083;28;20399;-73
2022/10/29 01:16:36;;;;;;;17.60;9.67;;;;;;;14.31;100.00;102023.41;5274741;28;20043;-72
2022/10/29 01:19:14;;;;;;;18.73;9.93;;;;;;;14.15;100.00;102019.00;5257121;28;20440;-72
2022/10/29 01:21:52;;;;;;;24.17;10.37;;;;;;;14.25;100.00;102014.91;5264802;28;20032;-72
2022/10/29 01:24:42;;;;;;;23.53;11.13;;;;;;;14.19;100.00;102002.06;5275209;28;20631;-73
2022/10/29 01:27:35;;;;;;;25.33;11.60;;;;;;;14.23;100.00;102014.13;5256243;28;20033;-73
2022/10/29 01:30:21;;;;;;;15.30;9.90;;;;;;;13.98;100.00;102018.13;5274689;28;20032;-74
2022/10/29 01:33:08;;;;;;;18.93;10.27;;;;;;;14.02;100.00;102013.56;5275221;28;20043;-72
2022/10/29 01:36:13;;;;;;;21.47;10.77;;;;;;;14.05;100.00;102002.00;5275605;28;20032;-73
2022/10/29 01:39:00;;;;;;;23.03;10.40;;;;;;;13.99;100.00;102003.19;5275028;28;20035;-74
2022/10/29 01:41:52;;;;;;;20.70;10.20;;;;;;;14.00;100.00;102005.75;5265376;28;20230;-72
2022/10/29 01:44:38;;;;;;;19.27;10.60;;;;;;;13.94;100.00;102000.84;5275490;28;20029;-73
2022/10/29 01:47:17;;;;;;;23.63;12.20;;;;;;;13.94;100.00;101999.97;5275554;28;20028;-73
2022/10/29 01:49:52;;;;;;;18.97;10.13;;;;;;;14.10;100.00;101984.16;5275144;28;20029;-73
2022/10/29 01:52:28;;;;;;;20.13;11.23;;;;;;;13.85;100.00;101975.00;5275710;28;20032;-72
2022/10/29 01:55:00;;;;;;;20.10;11.37;;;;;;;13.70;100.00;101967.00;5279297;28;20040;-72
2022/10/29 01:57:37;;;;;;;20.40;9.50;;;;;;;13.84;100.00;101978.59;5278625;28;20033;-72
2022/10/29 02:00:18;;;;;;;19.40;10.50;;;;;;;13.82;100.00;101980.44;5279030;28;20025;-73
2022/10/29 02:03:10;;;;;;;16.43;10.57;;;;;;;13.73;100.00;101977.38;5278969;28;20625;-72
2022/10/29 02:05:53;;;;;;;20.70;10.60;;;;;;;13.65;100.00;101976.94;5279474;28;20120;-72
2022/10/29 02:08:36;;;;;;;17.60;10.57;;;;;;;13.72;100.00;101983.56;5279158;28;20524;-73
2022/10/29 02:11:32;;;;;;;18.10;10.17;;;;;;;13.63;100.00;101976.19;5278128;28;20514;-73
2022/10/29 02:14:09;;;;;;;17.47;10.53;;;;;;;13.66;100.00;101970.75;5278516;28;20544;-73
2022/10/29 02:16:41;;;;;;;20.37;10.07;;;;;;;13.67;100.00;101967.19;5278868;28;20135;-72
2022/10/29 02:19:12;;;;;;;17.27;10.63;;;;;;;13.60;100.00;101960.56;5278511;28;20036;-75
2022/10/29 02:21:44;;;;;;;15.33;9.97;;;;;;;13.50;100.00;101960.19;5284142;28;20024;-73
2022/10/29 02:24:15;;;;;;;14.63;9.50;;;;;;;13.55;100.00;101959.03;5278797;28;20098;-73
2022/10/29 02:26:46;;;;;;;19.67;10.60;;;;;;;13.58;100.00;101957.19;5277865;28;20024;-73
2022/10/29 02:29:18;;;;;;;24.50;11.50;;;;;;;13.61;100.00;101957.00;5279201;28;20031;-73
2022/10/29 02:31:49;;;;;;;22.53;11.97;;;;;;;13.46;100.00;101948.97;5278376;28;20021;-73
2022/10/29 02:34:21;;;;;;;19.70;10.23;;;;;;;13.42;100.00;101942.19;5278255;28;20479;-73
2022/10/29 02:36:52;;;;;;;22.63;12.10;;;;;;;13.43;100.00;101943.88;5278556;28;20032;-73
2022/10/29 02:39:23;;;;;;;20.13;11.90;;;;;;;13.50;100.00;101934.72;5280323;28;20051;-72
2022/10/29 02:41:55;;;;;;;20.33;10.00;;;;;;;13.47;100.00;101934.03;5279246;28;20111;-72
2022/10/29 02:44:26;;;;;;;20.87;10.47;;;;;;;13.48;100.00;101936.59;5278196;28;20495;-72
2022/10/29 02:46:57;;;;;;;22.63;11.50;;;;;;;13.38;100.00;101941.50;5277836;28;20025;-72
2022/10/29 02:49:28;;;;;;;16.40;10.33;;;;;;;13.37;100.00;101936.34;5277537;28;20028;-72
2022/10/29 02:52:00;;;;;;;20.57;10.87;;;;;;;13.62;100.00;101942.91;5278292;28;20028;-73
2022/10/29 02:54:31;;;;;;;19.83;10.47;;;;;;;13.47;100.00;101934.91;5277640;28;20037;-72
2022/10/29 02:57:02;;;;;;;17.57;10.43;;;;;;;13.41;100.00;101932.59;5276574;28;20040;-71
2022/10/29 02:59:34;;;;;;;21.13;10.83;;;;;;;13.30;100.00;101934.03;5243883;28;20024;-73
2022/10/29 03:02:05;;;;;;;19.57;12.50;;;;;;;13.35;100.00;101941.69;5277401;28;20484;-72
2022/10/29 03:04:38;;;;;;;17.70;11.17;;;;;;;13.18;100.00;101925.00;5259879;28;20505;-72
2022/10/29 03:07:09;;;;;;;18.60;10.63;;;;;;;13.37;100.00;101926.63;5277351;28;20502;-72
2022/10/29 03:09:40;;;;;;;19.47;10.20;;;;;;;13.42;100.00;101921.16;5259908;28;20036;-71
2022/10/29 03:12:12;;;;;;;16.93;10.23;;;;;;;13.28;100.00;101921.91;5277048;28;20060;-72
2022/10/29 03:14:43;;;;;;;22.67;11.70;;;;;;;13.18;100.00;101925.00;5274827;28;20462;-72
2022/10/29 03:17:14;;;;;;;21.27;10.57;;;;;;;13.22;100.00;101925.69;5276944;28;20046;-72
2022/10/29 03:19:45;;;;;;;14.07;9.70;;;;;;;13.24;100.00;101913.31;5258917;28;20028;-72
2022/10/29 03:22:17;;;;;;;18.43;10.83;;;;;;;13.18;100.00;101913.63;5277891;28;20033;-72
2022/10/29 03:24:48;;;;;;;24.83;11.07;;;;;;;13.17;100.00;101918.06;5277635;28;20064;-72
2022/10/29 03:27:19;;;;;;;22.53;11.33;;;;;;;13.09;100.00;101916.78;5276842;28;20066;-72
2022/10/29 03:29:51;;;;;;;16.57;10.80;;;;;;;13.22;100.00;101909.91;5277580;28;20027;-72
2022/10/29 03:32:22;;;;;;;20.07;10.90;;;;;;;13.18;100.00;101903.97;5277341;28;20033;-71
2022/10/29 03:34:53;;;;;;;22.30;12.43;;;;;;;13.09;100.00;101899.19;5277516;28;20032;-73
2022/10/29 03:37:24;;;;;;;20.33;11.13;;;;;;;13.32;100.00;101910.25;5277876;28;20064;-72
2022/10/29 03:39:56;;;;;;;18.60;11.33;;;;;;;13.03;100.00;101884.63;5279697;28;20029;-73
2022/10/29 03:42:29;;;;;;;18.40;10.77;;;;;;;13.04;100.00;101891.56;5278081;28;20107;-73
2022/10/29 03:45:01;;;;;;;20.45;11.57;;;;;;;13.16;100.00;101892.69;5259193;28;20024;-73
2022/10/29 03:47:32;;;;;;;19.67;11.10;;;;;;;13.22;100.00;101894.13;5276667;28;20028;-73
2022/10/29 03:50:04;;;;;;;16.53;10.43;;;;;;;13.08;100.00;101889.63;5276379;28;20032;-73
2022/10/29 03:52:35;;;;;;;21.23;11.93;;;;;;;13.07;100.00;101891.38;5276511;28;20037;-73
2022/10/29 03:55:07;;;;;;;19.20;10.70;;;;;;;13.16;100.00;101889.22;5276569;28;20037;-73
2022/10/29 03:57:38;;;;;;;20.83;11.00;;;;;;;13.17;100.00;101881.25;5275496;28;20112;-73
2022/10/29 04:00:10;;;;;;;20.17;11.67;;;;;;;13.08;100.00;101879.09;5276569;28;20121;-73
2022/10/29 04:02:41;;;;;;;20.40;10.67;;;;;;;13.06;100.00;101867.81;5276205;28;20224;-73
2022/10/29 04:05:13;;;;;;;21.33;11.30;;;;;;;13.15;100.00;101866.47;5276272;28;20029;-73
2022/10/29 04:07:44;;;;;;;22.07;11.73;;;;;;;13.17;100.00;101861.97;5253942;28;20049;-73
2022/10/29 04:10:15;;;;;;;22.30;10.67;;;;;;;13.17;100.00;101864.59;5254846;28;20033;-73
2022/10/29 04:12:47;;;;;;;19.40;10.63;;;;;;;13.12;100.00;101862.22;5254437;28;20020;-73
2022/10/29 04:15:18;;;;;;;19.57;10.40;;;;;;;13.06;100.00;101857.28;5255348;28;20110;-73
2022/10/29 04:17:50;;;;;;;28.57;11.57;;;;;;;13.11;100.00;101870.22;5253063;28;20032;-73
2022/10/29 04:20:22;;;;;;;19.03;11.07;;;;;;;13.03;100.00;101855.69;5253578;28;20029;-72
2022/10/29 04:22:53;;;;;;;24.07;12.77;;;;;;;13.03;100.00;101846.94;5254088;28;20052;-74
2022/10/29 04:25:24;;;;;;;20.83;10.60;;;;;;;13.10;100.00;101855.34;5255287;28;20028;-72
2022/10/29 04:27:56;;;;;;;18.37;10.57;;;;;;;13.16;100.00;101847.13;5254493;28;20028;-71
2022/10/29 04:30:27;;;;;;;23.03;11.57;;;;;;;13.20;100.00;101859.16;5254888;28;20052;-71
2022/10/29 04:32:59;;;;;;;28.23;11.93;;;;;;;12.99;100.00;101830.47;5254941;28;20100;-72
2022/10/29 04:35:30;;;;;;;20.67;12.47;;;;;;;13.05;100.00;101840.69;5255600;28;20487;-72
2022/10/29 04:38:09;;;;;;;19.17;11.17;;;;;;;13.14;100.00;101835.84;5254981;28;20025;-71
2022/10/29 04:40:40;;;;;;;28.37;13.93;;;;;;;13.11;100.00;101838.66;5255370;28;20021;-71
2022/10/29 04:43:12;;;;;;;21.60;13.53;;;;;;;13.09;100.00;101841.34;5255178;28;20032;-73
2022/10/29 04:45:43;;;;;;;28.87;13.63;;;;;;;13.15;100.00;101846.28;5252621;28;20035;-73
2022/10/29 04:48:14;;;;;;;27.47;14.03;;;;;;;13.16;100.00;101844.50;5252403;28;20036;-73
2022/10/29 04:50:46;;;;;;;23.73;12.67;;;;;;;13.24;100.00;101851.97;5253561;28;20013;-73
2022/10/29 04:53:17;;;;;;;23.67;13.40;;;;;;;13.17;100.00;101851.44;5251805;28;20032;-72
2022/10/29 04:55:49;;;;;;;25.50;13.80;;;;;;;13.13;100.00;101847.28;5252189;28;20074;-73
2022/10/29 04:58:20;;;;;;;24.00;14.43;;;;;;;13.17;100.00;101840.94;5252032;28;20057;-74
2022/10/29 05:00:51;;;;;;;24.97;13.27;;;;;;;13.16;100.00;101834.81;5253246;28;20040;-74
2022/10/29 05:03:23;;;;;;;27.90;14.53;;;;;;;13.22;100.00;101836.25;5253356;28;20076;-73
2022/10/29 05:05:54;;;;;;;28.43;14.97;;;;;;;13.15;100.00;101825.22;5251019;28;20575;-72
2022/10/29 05:08:25;;;;;;;30.10;15.33;;;;;;;13.16;100.00;101836.63;5253463;28;20108;-72
2022/10/29 05:11:01;;;;;;;22.53;13.20;;;;;;;13.17;100.00;101833.03;5252360;28;20029;-73
2022/10/29 05:13:32;;;;;;;20.10;13.23;;;;;;;13.20;100.00;101819.72;5254089;28;20056;-73
2022/10/29 05:16:04;;;;;;;23.20;12.80;;;;;;;13.15;100.00;101829.63;5253241;28;20395;-73
2022/10/29 05:18:36;;;;;;;24.83;13.53;;;;;;;13.14;100.00;101827.94;5254940;28;20425;-72
2022/10/29 05:21:07;;;;;;;22.67;12.97;;;;;;;13.17;100.00;101822.53;5254705;28;20068;-72
2022/10/29 05:23:38;;;;;;;25.10;13.97;;;;;;;13.04;100.00;101823.19;5254252;28;20124;-72
2022/10/29 05:26:10;;;;;;;25.97;13.57;;;;;;;13.07;100.00;101823.00;5252724;28;20662;-73
2022/10/29 05:28:41;;;;;;;25.30;14.30;;;;;;;13.08;100.00;101810.72;5253196;28;20045;-72
2022/10/29 05:31:12;;;;;;;22.40;13.80;;;;;;;13.16;100.00;101820.84;5256620;28;20029;-73
2022/10/29 05:33:43;;;;;;;21.37;12.47;;;;;;;13.10;100.00;101815.91;5257562;28;20032;-73
2022/10/29 05:36:15;;;;;;;26.93;13.30;;;;;;;13.17;100.00;101812.00;5258675;28;20060;-72
2022/10/29 05:38:46;;;;;;;22.00;13.87;;;;;;;13.29;100.00;101810.47;5258932;28;20036;-72
2022/10/29 05:41:17;;;;;;;22.13;13.37;;;;;;;13.29;100.00;101811.31;5257628;28;20124;-72
2022/10/29 05:43:49;;;;;;;24.77;14.47;;;;;;;13.29;100.00;101803.44;5258506;28;20044;-73
2022/10/29 05:46:20;;;;;;;30.97;16.63;;;;;;;13.38;100.00;101811.72;5258918;28;20163;-72
2022/10/29 05:48:51;;;;;;;27.37;16.63;;;;;;;13.37;100.00;101810.03;5258260;28;20107;-72
2022/10/29 05:51:23;;;;;;;25.23;15.33;;;;;;;13.33;100.00;101795.34;5257278;28;20037;-73
2022/10/29 05:53:54;;;;;;;23.77;13.80;;;;;;;13.31;100.00;101793.66;5258213;28;20061;-72
2022/10/29 05:56:26;;;;;;;26.57;13.97;;;;;;;13.23;100.00;101790.59;5257265;28;20041;-72
2022/10/29 05:58:57;;;;;;;27.00;14.73;;;;;;;13.31;100.00;101803.34;5258007;28;20108;-72
2022/10/29 06:01:28;;;;;;;32.30;16.03;;;;;;;13.30;100.00;101801.63;5257201;28;20720;-73
2022/10/29 06:04:00;;;;;;;27.03;15.70;;;;;;;13.28;100.00;101793.00;5256807;28;20491;-72
2022/10/29 06:06:31;;;;;;;28.60;16.87;;;;;;;13.32;100.00;101789.22;5256567;28;20496;-73
2022/10/29 06:09:02;;;;;;;28.57;17.60;;;;;;;13.31;100.00;101790.19;5258447;28;20025;-73
2022/10/29 06:11:34;;;;;;;26.50;16.23;;;;;;;13.35;100.00;101794.34;5257313;28;20036;-73
2022/10/29 06:14:05;;;;;;;27.73;16.83;;;;;;;13.42;100.00;101798.31;5258220;28;20499;-73
2022/10/29 06:16:36;;;;;;;27.83;15.50;;;;;;;13.43;100.00;101823.69;5256572;28;20162;-73
2022/10/29 06:19:08;;;;;;;31.67;16.60;;;;;;;13.46;100.00;101822.66;5255849;28;20107;-73
2022/10/29 06:21:39;;;;;;;30.27;16.57;;;;;;;13.43;100.00;101812.31;5257951;28;20017;-73
2022/10/29 06:24:12;;;;;;;27.87;17.67;;;;;;;13.42;100.00;101815.91;5257724;28;20021;-73
2022/10/29 06:26:43;;;;;;;29.00;16.10;;;;;;;13.48;100.00;101826.06;5257124;28;20021;-73
2022/10/29 06:29:14;;;;;;;29.27;17.80;;;;;;;13.51;100.00;101820.63;5258524;28;20075;-73
2022/10/29 06:31:46;;;;;;;29.83;16.77;;;;;;;13.51;100.00;101822.41;5257130;28;20025;-72
2022/10/29 06:34:17;;;;;;;29.60;15.90;;;;;;;13.46;100.00;101809.50;5256233;28;20035;-72
2022/10/29 06:36:48;;;;;;;24.57;14.87;;;;;;;13.48;100.00;101820.78;5257939;28;20083;-73
2022/10/29 06:39:19;;;;;;;32.83;16.43;;;;;;;13.43;100.00;101823.69;5257207;28;20065;-73
2022/10/29 06:41:51;;;;;;;29.00;17.47;;;;;;;13.42;100.00;101805.38;5255444;28;20082;-72
2022/10/29 06:44:22;;;;;;;30.93;16.17;;;;;;;13.40;100.00;101818.63;5257048;28;20025;-72
2022/10/29 06:46:53;;;;;;;23.30;16.20;;;;;;;13.51;100.00;101818.00;5257192;28;20026;-72
2022/10/29 06:49:25;;;;;;;23.50;14.57;;;;;;;13.49;100.00;101826.91;5257605;28;20023;-71
2022/10/29 06:51:56;;;;;;;27.60;14.47;;;;;;;13.57;100.00;101826.50;5256174;28;20472;-72
2022/10/29 06:54:27;;;;;;;25.63;14.90;;;;;;;13.61;100.00;101828.88;5256711;28;20102;-71
2022/10/29 06:56:59;;;;;;;27.30;15.83;;;;;;;13.57;100.00;101830.00;5256520;28;20443;-72
2022/10/29 06:59:30;;;;;;;21.03;14.97;;;;;;;13.53;100.00;101825.81;5257579;28;20100;-72
2022/10/29 07:02:01;;;;;;;27.90;14.80;;;;;;;13.54;100.00;101830.16;5255380;28;20063;-72
2022/10/29 07:04:32;;;;;;;26.83;16.30;;;;;;;13.61;100.00;101833.28;5257409;28;20025;-73
2022/10/29 07:07:04;;;;;;;24.43;15.07;;;;;;;13.58;100.00;101831.66;5270826;28;20040;-72
2022/10/29 07:09:35;;;;;;;33.27;16.13;;;;;;;13.61;100.00;101831.53;5260625;28;20051;-72
2022/10/29 07:12:06;;;;;;;26.03;17.17;;;;;;;13.55;100.00;101811.66;5250569;28;20528;-73
2022/10/29 07:14:38;;;;;;;26.27;14.83;;;;;;;13.66;100.00;101812.81;5259069;28;20051;-73
2022/10/29 07:17:09;;;;;;;31.13;15.90;;;;;;;13.62;100.00;101817.41;5260224;28;20108;-73
2022/10/29 07:19:40;;;;;;;31.73;15.57;;;;;;;13.70;100.00;101814.31;5259711;28;20387;-73
2022/10/29 07:22:11;;;;;;;30.17;15.87;;;;;;;13.72;100.00;101809.00;5277691;28;20029;-73
2022/10/29 07:24:43;;;;;;;28.97;14.73;;;;;;;13.73;100.00;101797.53;5276673;28;20024;-74
2022/10/29 07:27:14;;;;;;;24.50;14.33;;;;;;;13.71;100.00;101792.34;5277031;28;20029;-73
2022/10/29 07:29:45;;;;;;;28.37;15.23;;;;;;;13.79;100.00;101792.75;5259203;28;20070;-74
2022/10/29 07:32:16;;;;;;;31.17;15.50;;;;;;;13.86;100.00;101793.22;5258397;28;20360;-73
2022/10/29 07:34:48;;;;;;;23.63;14.17;;;;;;;13.78;100.00;101782.31;5277168;28;20596;-73
2022/10/29 07:37:19;;;;;;;24.93;14.87;;;;;;;13.90;100.00;101793.91;5278567;28;20119;-72
2022/10/29 07:39:50;;;;;;;27.13;13.80;;;;;;;13.93;100.00;101793.72;5278407;28;20142;-73
2022/10/29 07:42:22;;;;;;;26.13;14.77;;;;;;;13.97;100.00;101794.38;5276566;28;20032;-73
2022/10/29 07:44:53;;;;;;;30.97;14.37;;;;;;;14.01;100.00;101796.75;5276739;28;20444;-73
2022/10/29 07:47:24;;;;;;;31.33;14.77;;;;;;;14.08;100.00;101793.75;5277552;28;20475;-73
2022/10/29 07:49:55;;;;;;;27.43;13.93;;;;;;;14.17;100.00;101795.84;5276741;28;20455;-73
2022/10/29 07:52:27;;;;;;;32.37;15.03;;;;;;;14.21;100.00;101789.44;5277053;28;20031;-72
2022/10/29 07:55:00;;;;;;;27.83;14.53;;;;;;;14.24;100.00;101794.50;5276280;28;20074;-72
2022/10/29 07:57:31;;;;;;;28.10;14.03;;;;;;;14.32;100.00;101801.97;5275945;28;20032;-73
2022/10/29 08:00:03;;;;;;;28.07;14.60;;;;;;;14.40;100.00;101796.19;5259388;28;20052;-72
2022/10/29 08:02:34;;;;;;;23.17;13.87;;;;;;;14.40;100.00;101785.66;5276610;28;20124;-73
2022/10/29 08:05:06;;;;;;;27.33;13.70;;;;;;;14.54;100.00;101791.91;5276655;28;20043;-73
2022/10/29 08:07:37;;;;;;;30.93;14.10;;;;;;;14.62;100.00;101801.03;5258484;28;20499;-72
2022/10/29 08:10:08;;;;;;;33.40;14.53;;;;;;;14.70;100.00;101795.25;5258353;28;20024;-73
2022/10/29 08:12:39;;;;;;;22.00;13.73;;;;;;;14.78;100.00;101793.94;5276834;28;20028;-73
2022/10/29 08:15:11;;;;;;;29.93;13.50;;;;;;;14.81;100.00;101783.22;5275862;28;20033;-73
2022/10/29 08:17:42;;;;;;;23.40;12.90;;;;;;;14.87;100.00;101777.59;5276391;28;20024;-73
2022/10/29 08:20:14;;;;;;;23.80;12.27;;;;;;;14.94;100.00;101778.88;5276405;28;20055;-72
2022/10/29 08:22:46;;;;;;;29.37;14.13;;;;;;;14.96;100.00;101782.25;5257847;28;20021;-74
2022/10/29 08:25:17;;;;;;;23.83;12.20;;;;;;;15.01;100.00;101768.75;5275700;28;20032;-73
2022/10/29 08:28:02;;;;;;;25.07;14.23;;;;;;;15.10;100.00;101776.09;5257659;28;20035;-73
2022/10/29 08:30:34;;;;;;;20.90;13.27;;;;;;;15.14;100.00;101781.16;5276523;28;20507;-73
2022/10/29 08:33:06;;;;;;;24.10;13.20;;;;;;;15.18;100.00;101774.75;5276097;28;20027;-73
2022/10/29 08:35:37;;;;;;;23.47;12.57;;;;;;;15.29;100.00;101774.06;5276324;28;20044;-74
2022/10/29 08:38:08;;;;;;;27.10;13.97;;;;;;;15.36;100.00;101777.97;5276039;28;20024;-73
2022/10/29 08:41:16;;;;;;;26.23;13.03;;;;;;;15.42;100.00;101779.38;5257321;28;20027;-74
2022/10/29 08:44:05;;;;;;;25.23;12.77;;;;;;;15.55;100.00;101787.34;5257578;28;20117;-73
2022/10/29 08:46:43;;;;;;;23.57;11.67;;;;;;;15.60;100.00;101785.25;5261609;28;20493;-73
2022/10/29 08:49:20;;;;;;;27.00;12.63;;;;;;;15.67;100.00;101769.84;5276258;28;20028;-72
2022/10/29 08:51:59;;;;;;;20.13;11.17;;;;;;;15.74;100.00;101776.41;5257765;28;20451;-73
2022/10/29 08:54:35;;;;;;;23.97;12.00;;;;;;;15.77;100.00;101775.34;5276309;28;20066;-74
2022/10/29 08:57:13;;;;;;;21.17;10.83;;;;;;;15.81;100.00;101772.38;5274625;28;20673;-74
2022/10/29 09:00:05;;;;;;;23.70;11.73;;;;;;;15.76;100.00;101763.91;5275748;28;20036;-73
2022/10/29 09:02:36;;;;;;;23.33;10.63;;;;;;;15.79;100.00;101768.16;5276052;28;20032;-73
2022/10/29 09:05:15;;;;;;;19.60;10.13;;;;;;;15.83;100.00;101759.91;5258908;28;20051;-73
2022/10/29 09:08:22;;;;;;;21.57;10.53;;;;;;;15.99;100.00;101763.31;5260010;28;21525;-73
2022/10/29 09:10:56;;;;;;;21.00;10.30;;;;;;;16.08;100.00;101762.72;5274285;28;20086;-73
2022/10/29 09:14:00;;;;;;;22.83;10.23;;;;;;;16.18;100.00;101762.94;5275601;28;20050;-73
2022/10/29 09:16:56;;;;;;;19.50;10.43;;;;;;;16.26;100.00;101765.03;5257806;28;20063;-72
2022/10/29 09:19:43;;;;;;;26.40;9.63;;;;;;;16.53;100.00;101769.34;5275289;28;20028;-73
2022/10/29 09:22:50;;;;;;;17.23;8.77;;;;;;;16.66;100.00;101761.38;5274641;28;20033;-74
2022/10/29 09:25:29;;;;;;;16.63;7.63;;;;;;;16.55;100.00;101760.34;5241640;28;20127;-74
2022/10/29 09:28:38;;;;;;;19.73;8.90;;;;;;;16.75;100.00;101767.81;5274946;28;20128;-74
2022/10/29 09:31:15;;;;;;;17.90;8.03;;;;;;;16.73;100.00;101762.63;5258569;28;20033;-74
2022/10/29 09:33:49;;;;;;;22.03;7.20;;;;;;;16.72;100.00;101746.88;5275347;28;20033;-73
2022/10/29 09:36:22;;;;;;;18.60;8.00;;;;;;;16.67;100.00;101753.31;5279467;28;20119;-73
2022/10/29 09:38:58;;;;;;;20.20;8.52;;;;;;;16.71;100.00;101742.53;5277671;28;20031;-74
2022/10/29 09:41:32;;;;;;;13.83;8.00;;;;;;;16.65;100.00;101749.94;5274992;28;20033;-74
2022/10/29 09:44:14;;;;;;;17.70;7.13;;;;;;;16.74;100.00;101748.44;5286863;28;20125;-74
2022/10/29 09:47:03;;;;;;;19.80;7.63;;;;;;;16.75;100.00;101749.28;5275557;28;20097;-74
2022/10/29 09:49:58;;;;;;;16.13;6.53;;;;;;;16.89;100.00;101738.56;5274163;28;20040;-74
2022/10/29 09:52:34;;;;;;;24.40;7.60;;;;;;;16.99;100.00;101729.94;5254228;28;20390;-74
2022/10/29 09:55:09;;;;;;;14.80;6.80;;;;;;;17.19;100.00;101735.59;5275818;28;20021;-74
2022/10/29 09:57:42;;;;;;;16.97;7.07;;;;;;;17.32;100.00;101725.78;5281765;28;20446;-73
2022/10/29 10:00:23;;;;;;;13.60;7.07;;;;;;;17.44;100.00;101717.91;5282962;28;20023;-74
2022/10/29 10:03:06;;;;;;;19.73;6.67;;;;;;;17.75;100.00;101728.78;5280511;28;20080;-74
2022/10/29 10:05:56;;;;;;;17.87;7.07;;;;;;;18.04;100.00;101735.44;5269489;28;20032;-73
2022/10/29 10:08:29;;;;;;;19.80;6.50;;;;;;;18.16;100.00;101723.91;5263004;28;20040;-71
2022/10/29 10:11:06;;;;;;;13.83;5.83;;;;;;;18.08;100.00;101710.41;5277894;28;20040;-72
2022/10/29 10:13:51;;;;;;;17.17;6.20;;;;;;;18.23;100.00;101725.13;5272869;28;20483;-76
2022/10/29 10:16:25;;;;;;;20.27;5.77;;;;;;;18.26;100.00;101724.03;5271870;28;20483;-71
2022/10/29 10:18:56;;;;;;;15.98;6.32;;;;;;;18.29;100.00;101717.66;5265693;28;20091;-72
2022/10/29 10:21:31;;;;;;;13.97;5.23;;;;;;;18.31;100.00;101719.19;5282803;28;20025;-74
2022/10/29 10:24:24;;;;;;;13.90;5.40;;;;;;;18.43;100.00;101721.84;5273968;28;20036;-72
2022/10/29 10:26:55;;;;;;;13.93;5.57;;;;;;;18.52;100.00;101728.25;5287200;28;20035;-73
2022/10/29 10:29:27;;;;;;;17.70;4.83;;;;;;;18.52;100.00;101721.09;5273939;28;20029;-72
2022/10/29 10:31:58;;;;;;;15.87;5.20;;;;;;;18.56;100.00;101719.91;5273601;28;20564;-74
2022/10/29 10:34:32;;;;;;;17.80;4.20;;;;;;;18.72;100.00;101719.50;5280130;28;20028;-73
2022/10/29 10:37:09;;;;;;;;;;;;;;;18.76;100.00;101713.94;5258202;28;20113;-72
2022/10/29 10:39:43;;;;;;;16.93;5.93;;;;;;;19.01;100.00;101711.94;5282188;28;19917;-74
2022/10/29 10:42:21;;;;;;;15.98;5.85;;;;;;;19.19;100.00;101715.75;5272934;28;20021;-75
2022/10/29 10:44:58;;;;;;;15.17;4.87;;;;;;;19.15;100.00;101693.06;5258836;28;20032;-72
2022/10/29 10:47:34;;;;;;;13.27;4.37;;;;;;;19.18;100.00;101698.13;5276387;28;20048;-76
2022/10/29 10:50:10;;;;;;;11.03;4.60;;;;;;;19.23;100.00;101700.41;5287950;28;20024;-75
2022/10/29 10:52:41;;;;;;;12.97;5.83;;;;;;;19.41;100.00;101694.53;5284235;28;20126;-74
2022/10/29 10:55:27;;;;;;;17.00;6.17;;;;;;;19.46;100.00;101689.66;5266150;28;20169;-74
2022/10/29 10:58:25;;;;;;;14.33;4.67;;;;;;;19.42;100.00;101688.22;5291557;28;20665;-74
2022/10/29 11:01:02;;;;;;;14.37;5.03;;;;;;;19.62;100.00;101689.19;5288007;28;20096;-73
2022/10/29 11:03:33;;;;;;;16.27;5.25;;;;;;;19.71;100.00;101695.53;5287181;28;20042;-73
2022/10/29 11:06:19;;;;;;;16.50;4.95;;;;;;;19.74;100.00;101697.09;5283808;28;20040;-72
2022/10/29 11:08:54;;;;;;;13.13;3.92;;;;;;;19.82;100.00;101689.28;5266131;28;20038;-73
2022/10/29 11:11:34;;;;;;;;;;;;;;;19.82;100.00;101687.50;5296104;28;20016;-74
2022/10/29 11:14:16;;;;;;;14.37;4.47;;;;;;;20.01;100.00;101683.22;5283881;28;20596;-72
2022/10/29 11:16:54;;;;;;;15.83;4.57;;;;;;;19.93;100.00;101696.34;5284935;28;20459;-73
2022/10/29 11:19:44;;;;;;;15.70;4.28;;;;;;;20.12;100.00;101686.78;5295213;28;20522;-70
2022/10/29 11:22:18;;;;;;;12.65;4.25;;;;;;;20.11;100.00;101687.78;5280012;28;20020;-73
2022/10/29 11:24:52;;;;;;;;;;;;;;;20.16;100.00;101681.06;5285945;28;20036;-73
2022/10/29 11:27:26;;;;;;;13.30;4.53;;;;;;;20.39;100.00;101685.31;5284244;28;19916;-73
2022/10/29 11:30:05;;;;;;;14.43;5.20;;;;;;;20.40;100.00;101677.19;5287356;28;20310;-73
2022/10/29 11:33:14;;;;;;;13.65;4.70;;;;;;;20.51;100.00;101673.56;5281928;28;20032;-73
2022/10/29 11:35:54;;;;;;;12.70;4.30;;;;;;;20.58;100.00;101673.03;5284515;28;20039;-74
2022/10/29 11:38:30;;;;;;;12.75;4.07;;;;;;;20.61;100.00;101672.75;5257691;28;20594;-74
2022/10/29 11:41:29;;;;;;;19.55;4.20;;;;;;;20.68;100.00;101668.56;5271617;28;20545;-74